Friday, December 14, 2018, 1:22 PM EST
Back to Local

KEWB, New Bedford Regional Airport

Location: New Bedford, MA, United States Lat: 41.683
Local Time: 1:22 PM EST (18:22 GMT) Lon: -70.967
Time Zone: US/Eastern Elev: 78 ft

Show me the last for .
Show Decoded

2018-12-14 12:53 METAR KEWB 141753Z 17007KT 10SM FEW018 07/03 A3043 RMK AO2 SLP304 T00720033
                 10083 21078 58034 =
2018-12-14 11:53 METAR KEWB 141653Z 14009KT 10SM CLR 07/03 A3046 RMK AO2 SLP315 T00670028 =
2018-12-14 10:53 METAR KEWB 141553Z 14007KT 10SM CLR 06/02 A3050 RMK AO2 SLP329 T00610022 =
2018-12-14 09:53 METAR KEWB 141453Z VRB04KT 10SM CLR 04/02 A3053 RMK AO2 SLP338 T00440017 50002 =
2018-12-14 08:53 METAR KEWB 141353Z 00000KT 10SM CLR 00/M01 A3054 RMK AO2 SLP341 T00001011 =
2018-12-14 07:53 METAR KEWB 141253Z 00000KT 10SM CLR M05/M05 A3052 RMK AO2 SLP334 T10501050 =
2018-12-14 06:53 METAR KEWB 141153Z 00000KT 10SM CLR M07/M07 A3052 RMK AO2 SLP335 I1000 I6000
                 T10671067 11044 21078 57002 =
2018-12-14 05:53 METAR KEWB 141053Z AUTO 00000KT 10SM CLR M07/M07 A3052 RMK AO2 SLP337 I1000
                 T10671067 =
2018-12-14 04:53 METAR KEWB 140953Z AUTO 00000KT 10SM CLR M06/M07 A3052 RMK AO2 SLP335 I1000
                 T10611067 =
2018-12-14 03:53 METAR KEWB 140853Z AUTO 00000KT 10SM CLR M06/M06 A3052 RMK AO2 SLP337 I1000
                 I3000 T10561061 58011 =
2018-12-14 02:53 METAR KEWB 140753Z AUTO 00000KT 10SM CLR M05/M06 A3055 RMK AO2 SLP344 I1000
                 T10501061 =
2018-12-14 01:53 METAR KEWB 140653Z AUTO 00000KT 10SM CLR M06/M06 A3055 RMK AO2 SLP347 T10561061
                 =
2018-12-14 00:53 METAR KEWB 140553Z AUTO 00000KT 10SM CLR M05/M06 A3056 RMK AO2 SLP348 T10501056
                 11006 21050 53003 =
2018-12-13 23:53 METAR KEWB 140453Z AUTO 00000KT 10SM CLR M04/M05 A3054 RMK AO2 SLP342 T10441050
                 400221061 =
2018-12-13 22:53 METAR KEWB 140353Z AUTO 08003KT 10SM CLR M02/M04 A3054 RMK AO2 SLP343 T10221044
                 =
2018-12-13 21:53 METAR KEWB 140253Z 07005KT 10SM OVC070 M01/M04 A3055 RMK AO2 SLP345 T10061039
                 58000 =
2018-12-13 20:53 METAR KEWB 140153Z 00000KT 10SM OVC070 M01/M03 A3055 RMK AO2 SLP346 T10061033 =
2018-12-13 19:53 METAR KEWB 140053Z 06004KT 10SM FEW060 OVC075 M01/M04 A3055 RMK AO2 SLP345
                 T10111044 =
2018-12-13 18:53 METAR KEWB 132353Z 05004KT 10SM BKN080 M01/M04 A3055 RMK AO2 SLP345 T10111044
                 10011 21017 52007 =
2018-12-13 17:53 METAR KEWB 132253Z 09004KT 10SM OVC085 M01/M05 A3054 RMK AO2 SLP342 T10061050 =
2018-12-13 16:53 METAR KEWB 132153Z 09004KT 10SM OVC090 01/M06 A3053 RMK AO2 SLP341 T00061056 =
2018-12-13 15:53 METAR KEWB 132053Z 12004KT 10SM OVC090 01/M05 A3053 RMK AO2 SLP338 T00111050
                 53009 =
2018-12-13 14:53 METAR KEWB 131953Z 09005KT 10SM OVC090 01/M06 A3051 RMK AO2 SLP332 T00111056 =
2018-12-13 13:53 METAR KEWB 131853Z 11007KT 10SM BKN100 01/M06 A3050 RMK AO2 SLP329 T00111061 =

Support USWX by starting your Amazon purchase here.